カラカス の空港の天気 - METARとTAF

シモン・ボリバー空港(バルガス) ( SVMI / CCS ) - ベネズエラ バルガス州、Maiquetia (カラカス近郊)
飛行場実況気象(Metar)
観測時間06/24 05:00 VET (06/24 09:00 UTC)
風向・風速静穏 0m/s
視程10km以上
天気現象
全天の8割程度の雲 雲底高度 490m
気温23℃
湿度94%
気圧1011hPa
METARSVMI 240900Z 00000KT 9999 BKN016 23/22 Q1011
過去の天気等 Google飛行場航空写真 Wunderground天気予報

過去48時間のMETAR

飛行場予報(TAF)
発表時間: 6/24 00:00 VET (6/24 04:00 UTC)
予報対象時間: 24日2時 VET ~ 25日2時 VET
風向・風速静穏
視程10km以上
全天の8割程度の雲 雲底高度 490m
24日2時 VET ~ 24日6時 VET に一時的に
視程8000m
天気現象霧雨
全天の8割程度の雲 雲底高度 400m
TAF SVMI 240400Z 2406/2506 00000KT 9999 BKN016 TX33/19Z TN24/07Z
TEMPO 2406/2410 8000 DZ BKN013